Time;durP1;ratioP1;P1;durP2;ratioP2;P2;SDS_P1;SDS_P2;PMS_P1;PMS_P2;Temp;Humidity;BMP_temperature;BMP_pressure;BME280_temperature;BME280_humidity;BME280_pressure;Samples;Min_cycle;Max_cycle;Signal;HPM_P1;HPM_P2
2024/03/23 00:00:46;;;;;;;15.20;3.55;;;;;;;3.54;57.28;100901.69;5021983;28;20238;-73
2024/03/23 00:03:12;;;;;;;16.02;2.10;;;;;;;3.44;57.69;100905.22;5032407;28;20068;-73
2024/03/23 00:05:39;;;;;;;17.58;2.83;;;;;;;3.61;56.97;100908.50;5025473;28;20337;-73
2024/03/23 00:08:07;;;;;;;17.13;1.88;;;;;;;3.58;57.14;100909.38;5031655;28;20126;-73
2024/03/23 00:10:36;;;;;;;17.63;1.75;;;;;;;3.54;57.16;100902.53;5026256;28;20093;-73
2024/03/23 00:13:04;;;;;;;8.85;2.58;;;;;;;3.66;56.90;100891.19;5029774;28;20068;-74
2024/03/23 00:15:34;;;;;;;17.67;1.98;;;;;;;3.59;56.67;100900.75;5026872;28;20032;-74
2024/03/23 00:18:01;;;;;;;13.30;2.08;;;;;;;3.58;56.84;100903.34;5031422;28;20120;-73
2024/03/23 00:20:27;;;;;;;16.83;1.52;;;;;;;3.59;57.08;100893.00;5025988;28;20120;-73
2024/03/23 00:22:54;;;;;;;20.60;1.38;;;;;;;3.49;56.59;100890.53;5032768;28;20071;-74
2024/03/23 00:25:23;;;;;;;16.52;2.15;;;;;;;3.62;56.75;100888.66;5029762;28;20056;-75
2024/03/23 00:27:51;;;;;;;14.88;1.92;;;;;;;3.58;56.63;100865.44;5032463;28;20047;-73
2024/03/23 00:30:17;;;;;;;15.70;2.15;;;;;;;3.37;57.32;100863.09;5026514;28;20040;-73
2024/03/23 00:32:44;;;;;;;13.32;2.30;;;;;;;3.48;56.96;100874.16;5028135;28;20076;-73
2024/03/23 00:35:10;;;;;;;10.93;1.13;;;;;;;3.57;56.82;100873.22;5031384;28;20041;-73
2024/03/23 00:37:37;;;;;;;18.70;2.38;;;;;;;3.51;56.72;100868.94;5024954;28;20036;-74
2024/03/23 00:40:04;;;;;;;16.20;2.35;;;;;;;3.37;57.16;100857.91;5031192;28;20032;-73
2024/03/23 00:42:30;;;;;;;17.48;1.60;;;;;;;3.34;57.35;100868.28;5025768;28;20055;-74
2024/03/23 00:44:57;;;;;;;26.08;3.03;;;;;;;3.29;57.38;100859.72;5035139;28;20031;-74
2024/03/23 00:47:24;;;;;;;21.25;2.50;;;;;;;3.39;56.98;100841.53;5025075;28;20041;-74
2024/03/23 00:49:50;;;;;;;9.57;1.52;;;;;;;3.37;56.81;100842.41;5032809;28;20032;-74
2024/03/23 00:52:16;;;;;;;19.10;3.33;;;;;;;3.32;56.93;100839.03;5027968;28;20037;-73
2024/03/23 00:54:41;;;;;;;14.13;1.73;;;;;;;3.36;56.92;100830.38;5030391;28;22583;-74
2024/03/23 00:57:06;;;;;;;18.95;2.13;;;;;;;3.39;56.62;100825.16;5021947;28;20500;-73
2024/03/23 00:59:32;;;;;;;13.48;1.92;;;;;;;3.25;57.12;100829.56;5039272;28;20566;-74
2024/03/23 01:01:57;;;;;;;10.05;1.90;;;;;;;3.25;57.36;100827.00;5028906;28;20353;-73
2024/03/23 01:04:23;;;;;;;10.73;1.45;;;;;;;3.13;58.09;100826.25;5025665;28;20428;-74
2024/03/23 01:06:48;;;;;;;18.85;2.22;;;;;;;3.13;57.56;100826.25;5032970;28;20029;-73
2024/03/23 01:09:14;;;;;;;19.15;1.38;;;;;;;3.11;57.79;100814.22;5024783;28;20044;-73
2024/03/23 01:11:39;;;;;;;8.25;1.70;;;;;;;3.29;57.56;100813.22;5027263;28;20031;-73
2024/03/23 01:14:08;;;;;;;13.13;1.73;;;;;;;3.33;57.33;100809.72;5026532;28;20406;-73
2024/03/23 01:16:33;;;;;;;16.33;2.90;;;;;;;3.41;57.10;100807.06;5027450;28;20044;-73
2024/03/23 01:18:59;;;;;;;11.75;1.65;;;;;;;3.44;56.58;100802.72;5030278;28;20114;-73
2024/03/23 01:21:24;;;;;;;14.88;1.92;;;;;;;3.38;56.77;100805.34;5024531;28;20110;-74
2024/03/23 01:23:50;;;;;;;12.48;1.80;;;;;;;3.35;56.66;100797.66;5028008;28;20893;-74
2024/03/23 01:26:16;;;;;;;8.65;1.20;;;;;;;3.33;56.68;100800.25;5031829;28;20025;-75
2024/03/23 01:28:41;;;;;;;17.10;1.85;;;;;;;3.15;57.86;100793.50;5025502;28;20036;-75
2024/03/23 01:31:07;;;;;;;12.07;2.05;;;;;;;3.16;57.20;100787.50;5031850;28;20060;-73
2024/03/23 01:33:32;;;;;;;20.75;2.67;;;;;;;3.10;57.71;100777.22;5024408;28;20040;-75
2024/03/23 01:35:58;;;;;;;18.88;2.50;;;;;;;3.06;57.39;100770.38;5031885;28;20032;-75
2024/03/23 01:38:23;;;;;;;22.00;2.47;;;;;;;2.96;58.13;100771.34;5044297;28;20059;-75
2024/03/23 01:40:49;;;;;;;19.50;1.83;;;;;;;3.05;57.49;100778.16;5025228;28;20033;-75
2024/03/23 01:43:14;;;;;;;12.70;1.65;;;;;;;2.87;57.97;100777.47;5031417;28;20049;-75
2024/03/23 01:45:40;;;;;;;19.95;1.67;;;;;;;2.84;58.04;100763.72;5024666;28;20032;-70
2024/03/23 01:48:06;;;;;;;25.42;2.65;;;;;;;2.92;57.66;100762.78;5029430;28;20123;-71
2024/03/23 01:50:35;;;;;;;14.60;2.50;;;;;;;2.84;57.61;100763.72;5023640;28;21005;-67
2024/03/23 01:53:06;;;;;;;14.93;1.83;;;;;;;2.84;57.78;100759.41;5031988;28;20048;-71
2024/03/23 01:55:34;;;;;;;13.43;1.67;;;;;;;2.76;57.67;100758.63;5023797;28;20582;-74
2024/03/23 01:58:04;;;;;;;18.63;1.95;;;;;;;2.62;58.55;100761.31;5024094;28;20659;-73
2024/03/23 02:00:30;;;;;;;8.45;1.77;;;;;;;2.62;57.77;100758.75;5026594;28;20036;-73
2024/03/23 02:02:55;;;;;;;9.50;1.67;;;;;;;2.61;57.87;100762.19;5033081;28;20102;-72
2024/03/23 02:05:22;;;;;;;13.75;2.83;;;;;;;2.56;58.09;100751.91;5024963;28;20091;-72
2024/03/23 02:07:48;;;;;;;20.90;2.55;;;;;;;2.48;58.28;100745.13;5026609;28;20071;-72
2024/03/23 02:10:13;;;;;;;17.33;2.03;;;;;;;2.49;57.93;100741.69;5026581;28;20032;-72
2024/03/23 02:12:39;;;;;;;12.18;2.38;;;;;;;2.44;58.50;100733.09;5022735;28;20041;-72
2024/03/23 02:15:05;;;;;;;15.90;1.83;;;;;;;2.40;58.60;100736.56;5032433;28;20806;-72
2024/03/23 02:17:34;;;;;;;17.42;2.60;;;;;;;2.40;58.27;100742.63;5021445;28;20619;-74
2024/03/23 02:20:00;;;;;;;14.20;2.75;;;;;;;2.34;58.71;100724.59;5052816;28;20039;-74
2024/03/23 02:22:34;;;;;;;14.30;1.67;;;;;;;2.13;59.14;100728.19;5020554;28;20052;-69
2024/03/23 02:24:59;;;;;;;18.90;2.58;;;;;;;2.22;58.87;100715.25;5033396;28;20056;-73
2024/03/23 02:27:24;;;;;;;18.15;2.45;;;;;;;2.17;59.31;100716.97;5027081;28;20477;-73
2024/03/23 02:29:50;;;;;;;12.32;2.42;;;;;;;2.30;58.45;100710.00;5029740;28;20048;-74
2024/03/23 02:32:15;;;;;;;14.43;1.73;;;;;;;2.30;58.54;100710.84;5028705;28;20104;-73
2024/03/23 02:34:41;;;;;;;18.92;2.33;;;;;;;2.18;58.84;100694.66;5030382;28;20120;-73
2024/03/23 02:37:11;;;;;;;16.15;2.85;;;;;;;2.13;59.06;100699.81;5031213;28;20033;-72
2024/03/23 02:39:37;;;;;;;19.15;3.08;;;;;;;1.87;59.99;100703.44;5030631;28;20021;-74
2024/03/23 02:42:02;;;;;;;16.65;2.45;;;;;;;1.85;60.52;100694.03;5032541;28;20679;-74
2024/03/23 02:44:28;;;;;;;20.27;2.75;;;;;;;1.91;60.11;100697.41;5033555;28;20068;-74
2024/03/23 02:46:53;;;;;;;14.05;2.47;;;;;;;1.86;60.25;100688.88;5027326;28;20037;-72
2024/03/23 02:49:19;;;;;;;10.45;1.38;;;;;;;2.03;59.42;100680.16;5035918;28;20036;-73
2024/03/23 02:51:45;;;;;;;14.05;2.03;;;;;;;2.00;59.55;100677.56;5032639;28;20036;-71
2024/03/23 02:54:10;;;;;;;20.85;2.75;;;;;;;1.90;59.39;100680.22;5033297;28;20052;-72
2024/03/23 02:56:36;;;;;;;23.33;2.00;;;;;;;1.82;60.07;100683.72;5013543;28;20056;-72
2024/03/23 02:59:01;;;;;;;22.13;3.65;;;;;;;1.80;60.67;100683.75;5032016;28;20599;-72
2024/03/23 03:01:27;;;;;;;13.60;1.85;;;;;;;1.67;60.42;100676.97;5034022;28;20037;-71
2024/03/23 03:03:52;;;;;;;18.80;3.42;;;;;;;1.82;60.09;100670.81;5027734;28;20435;-72
2024/03/23 03:06:25;;;;;;;13.65;1.80;;;;;;;1.90;59.97;100666.47;5033702;28;20032;-71
2024/03/23 03:08:50;;;;;;;19.77;4.10;;;;;;;1.80;60.55;100657.97;5026940;28;21135;-71
2024/03/23 03:11:16;;;;;;;17.58;1.92;;;;;;;1.88;59.78;100661.34;5032739;28;20039;-72
2024/03/23 03:13:41;;;;;;;15.52;2.25;;;;;;;1.86;60.17;100660.53;5045966;27;20055;-71
2024/03/23 03:16:11;;;;;;;8.48;0.93;;;;;;;1.91;59.99;100656.19;5038638;28;20037;-71
2024/03/23 03:18:37;;;;;;;14.02;1.98;;;;;;;1.82;60.39;100655.38;5031306;28;20525;-72
2024/03/23 03:21:05;;;;;;;13.63;2.85;;;;;;;1.92;59.77;100655.28;5035693;28;20029;-71
2024/03/23 03:23:30;;;;;;;21.13;2.55;;;;;;;1.94;59.68;100656.13;5031579;28;20980;-71
2024/03/23 03:25:56;;;;;;;14.48;2.47;;;;;;;1.81;60.23;100654.53;5028455;28;20120;-72
2024/03/23 03:28:22;;;;;;;14.50;1.70;;;;;;;1.60;60.80;100652.09;5032834;28;20057;-71
2024/03/23 03:30:47;;;;;;;16.95;2.35;;;;;;;1.56;61.08;100652.97;5028302;28;20033;-71
2024/03/23 03:33:13;;;;;;;13.52;2.10;;;;;;;1.65;61.41;100652.94;5036422;28;20041;-75
2024/03/23 03:35:38;;;;;;;22.52;3.13;;;;;;;1.55;61.31;100646.09;5033775;28;20029;-74
2024/03/23 03:38:04;;;;;;;14.50;1.60;;;;;;;1.79;60.47;100645.94;5033931;28;20441;-75
2024/03/23 03:40:30;;;;;;;18.38;3.22;;;;;;;1.59;61.16;100638.34;5031728;28;20036;-74
2024/03/23 03:42:56;;;;;;;9.80;2.15;;;;;;;1.61;61.25;100641.78;5029529;28;20093;-74
2024/03/23 03:45:21;;;;;;;10.13;2.53;;;;;;;1.69;61.31;100634.00;5036907;28;20101;-74
2024/03/23 03:47:46;;;;;;;15.52;1.88;;;;;;;1.78;60.82;100633.94;5028977;28;20044;-74
2024/03/23 03:50:12;;;;;;;9.82;2.65;;;;;;;1.39;61.80;100635.84;5033092;28;20025;-76
2024/03/23 03:52:37;;;;;;;8.38;2.38;;;;;;;1.76;61.01;100625.34;5028003;28;20048;-75
2024/03/23 03:55:03;;;;;;;14.20;2.10;;;;;;;1.81;60.80;100627.91;5034743;28;20032;-74
2024/03/23 03:57:29;;;;;;;22.02;2.15;;;;;;;1.70;60.69;100622.81;5031413;28;20095;-74
2024/03/23 03:59:54;;;;;;;13.50;2.63;;;;;;;1.58;61.22;100623.78;5032105;28;20387;-74
2024/03/23 04:02:20;;;;;;;14.82;2.22;;;;;;;1.38;61.97;100623.00;5019160;28;20097;-74
2024/03/23 04:04:46;;;;;;;10.18;1.85;;;;;;;1.36;62.09;100620.44;5034812;28;20671;-74
2024/03/23 04:07:11;;;;;;;16.35;1.58;;;;;;;1.55;61.70;100625.50;5035481;28;20755;-74
2024/03/23 04:09:37;;;;;;;14.98;2.05;;;;;;;1.62;61.23;100616.88;5031961;28;20033;-75
2024/03/23 04:12:02;;;;;;;12.82;2.67;;;;;;;1.56;60.95;100622.91;5041726;28;20064;-74
2024/03/23 04:14:28;;;;;;;14.07;2.05;;;;;;;1.68;60.62;100612.50;5039501;28;20024;-74
2024/03/23 04:16:55;;;;;;;7.35;1.73;;;;;;;1.54;61.29;100613.50;5014994;28;20040;-73
2024/03/23 04:19:20;;;;;;;17.83;2.47;;;;;;;1.44;61.32;100613.56;5035774;28;20407;-73
2024/03/23 04:21:46;;;;;;;22.70;2.33;;;;;;;1.47;61.04;100620.41;5029898;28;20044;-74
2024/03/23 04:24:12;;;;;;;17.25;2.15;;;;;;;1.56;60.71;100614.34;5034665;28;20723;-73
2024/03/23 04:26:41;;;;;;;14.07;2.78;;;;;;;1.48;61.31;100607.53;5033024;28;20107;-75
2024/03/23 04:29:07;;;;;;;19.63;2.60;;;;;;;1.24;62.08;100594.78;5032190;28;20040;-73
2024/03/23 04:31:34;;;;;;;17.48;2.38;;;;;;;1.46;60.92;100596.38;5037751;28;20446;-74
2024/03/23 04:34:02;;;;;;;15.63;2.20;;;;;;;1.37;61.47;100598.94;5036692;28;20608;-73
2024/03/23 04:36:28;;;;;;;16.52;2.53;;;;;;;1.50;61.19;100597.19;5050737;28;20115;-74
2024/03/23 04:38:53;;;;;;;10.93;1.23;;;;;;;1.62;60.84;100586.81;5029499;28;20147;-73
2024/03/23 04:41:19;;;;;;;19.52;3.30;;;;;;;1.13;63.02;100586.22;5036226;28;20029;-74
2024/03/23 04:43:44;;;;;;;19.02;1.77;;;;;;;1.40;61.77;100585.22;5010703;28;21598;-73
2024/03/23 04:46:10;;;;;;;15.32;1.60;;;;;;;1.36;61.26;100583.53;5038750;28;20017;-73
2024/03/23 04:48:36;;;;;;;9.70;1.80;;;;;;;1.32;61.92;100578.38;5021625;28;20546;-73
2024/03/23 04:51:01;;;;;;;19.70;1.95;;;;;;;1.44;61.35;100582.66;5031300;28;20037;-73
2024/03/23 04:53:30;;;;;;;10.80;2.10;;;;;;;1.60;60.68;100582.56;5034935;28;20135;-73
2024/03/23 04:55:56;;;;;;;13.45;2.05;;;;;;;1.54;60.74;100573.13;5019062;28;20021;-72
2024/03/23 04:58:25;;;;;;;18.25;2.50;;;;;;;1.47;60.63;100582.63;5030191;28;20071;-72
2024/03/23 05:00:55;;;;;;;10.25;1.50;;;;;;;1.46;61.04;100575.78;5011686;28;20497;-73
2024/03/23 05:03:21;;;;;;;14.55;1.80;;;;;;;1.02;61.59;100568.28;5031257;28;20640;-72
2024/03/23 05:05:48;;;;;;;20.63;2.40;;;;;;;1.34;61.25;100580.97;5022776;28;20041;-72
2024/03/23 05:08:14;;;;;;;18.08;2.15;;;;;;;1.33;60.61;100571.53;5029233;28;20632;-71
2024/03/23 05:10:43;;;;;;;15.60;1.77;;;;;;;1.39;60.54;100574.06;5029480;28;20089;-72
2024/03/23 05:13:09;;;;;;;11.48;2.88;;;;;;;1.47;60.39;100567.16;5032379;28;20048;-71
2024/03/23 05:15:34;;;;;;;16.33;2.05;;;;;;;1.39;60.22;100574.06;5026222;28;20040;-72
2024/03/23 05:18:00;;;;;;;11.75;1.90;;;;;;;1.43;60.23;100570.63;5024712;28;20477;-72
2024/03/23 05:20:25;;;;;;;8.43;1.75;;;;;;;1.46;59.95;100570.63;5025553;28;20111;-72
2024/03/23 05:22:51;;;;;;;11.55;1.27;;;;;;;1.22;60.65;100565.59;5025914;28;20053;-74
2024/03/23 05:25:16;;;;;;;7.35;2.45;;;;;;;1.30;60.42;100568.97;5032248;28;20035;-74
2024/03/23 05:27:42;;;;;;;9.43;2.22;;;;;;;1.42;60.14;100571.50;5026103;28;21072;-75
2024/03/23 05:30:09;;;;;;;15.02;2.33;;;;;;;1.43;60.10;100570.63;5033393;28;20434;-73
2024/03/23 05:32:34;;;;;;;18.40;2.17;;;;;;;1.49;59.84;100568.00;5017373;28;20103;-73
2024/03/23 05:35:00;;;;;;;29.98;2.22;;;;;;;1.41;60.14;100566.34;5029785;28;20045;-74
2024/03/23 05:37:25;;;;;;;7.68;1.10;;;;;;;1.36;60.59;100566.34;5029760;28;20045;-74
2024/03/23 05:39:51;;;;;;;22.27;2.17;;;;;;;1.35;60.61;100564.66;5033062;28;20047;-73
2024/03/23 05:42:17;;;;;;;18.38;2.15;;;;;;;1.32;60.73;100562.94;5030112;28;20060;-75
2024/03/23 05:44:46;;;;;;;15.70;1.52;;;;;;;1.47;60.06;100568.91;5029492;28;20119;-75
2024/03/23 05:47:14;;;;;;;10.60;1.80;;;;;;;1.48;59.91;100568.91;5032090;28;20954;-74
2024/03/23 05:49:41;;;;;;;17.88;2.10;;;;;;;1.84;60.35;100555.69;5030459;28;20033;-74
2024/03/23 05:52:08;;;;;;;13.98;1.90;;;;;;;1.93;60.04;100561.66;5034678;28;20548;-74
2024/03/23 05:54:33;;;;;;;15.07;2.53;;;;;;;1.85;59.42;100553.13;5033760;28;20039;-74
2024/03/23 05:56:59;;;;;;;10.20;2.05;;;;;;;1.90;59.07;100553.09;5023990;28;20036;-74
2024/03/23 05:59:25;;;;;;;7.15;0.95;;;;;;;1.87;59.34;100551.38;5033301;28;20025;-74
2024/03/23 06:01:50;;;;;;;10.07;1.92;;;;;;;1.96;59.37;100547.03;5025464;28;20526;-74
2024/03/23 06:04:16;;;;;;;9.77;1.60;;;;;;;1.72;59.33;100551.53;5029184;28;20035;-74
2024/03/23 06:06:42;;;;;;;18.02;2.25;;;;;;;1.54;59.30;100546.53;5021763;28;20036;-74
2024/03/23 06:09:07;;;;;;;16.52;1.48;;;;;;;1.93;59.01;100548.75;5023147;28;20534;-74
2024/03/23 06:11:32;;;;;;;19.27;2.50;;;;;;;2.18;57.97;100540.78;5031248;28;20450;-74
2024/03/23 06:13:58;;;;;;;20.35;2.85;;;;;;;2.19;59.25;100541.63;5022898;28;20560;-73
2024/03/23 06:16:24;;;;;;;14.05;2.13;;;;;;;3.18;57.56;100547.28;5034489;28;20551;-75
2024/03/23 06:18:54;;;;;;;8.73;1.40;;;;;;;4.40;52.59;100534.00;5022091;28;20039;-74
2024/03/23 06:21:20;;;;;;;16.83;1.88;;;;;;;4.94;50.82;100532.06;5033125;28;21201;-72
2024/03/23 06:23:53;;;;;;;11.57;1.50;;;;;;;5.67;48.32;100538.13;5020083;28;20033;-70
2024/03/23 06:26:20;;;;;;;9.07;0.88;;;;;;;6.02;48.92;100533.78;5037624;28;20020;-71
2024/03/23 06:28:46;;;;;;;22.13;2.47;;;;;;;6.95;45.87;100534.66;5023055;28;20066;-72
2024/03/23 06:31:12;;;;;;;3.17;0.73;;;;;;;8.23;42.97;100525.31;5020058;28;20108;-72
2024/03/23 06:33:39;;;;;;;16.85;2.08;;;;;;;8.64;41.60;100531.59;5032550;28;20053;-69
2024/03/23 06:36:05;;;;;;;8.65;1.00;;;;;;;8.07;43.70;100532.78;5023519;28;20029;-73
2024/03/23 06:38:31;;;;;;;11.30;1.52;;;;;;;9.49;39.07;100528.31;5027947;28;20075;-74
2024/03/23 06:40:57;;;;;;;12.95;0.95;;;;;;;9.34;40.01;100535.00;5030829;28;20047;-74
2024/03/23 06:43:23;;;;;;;15.30;1.55;;;;;;;10.10;39.43;100532.75;5031808;28;20404;-74
2024/03/23 06:45:55;;;;;;;9.93;1.52;;;;;;;10.13;39.93;100527.41;5028727;28;20043;-75
2024/03/23 06:48:21;;;;;;;;;;;;;;;9.49;38.64;100531.78;5040320;28;20559;-71
2024/03/23 06:50:47;;;;;;;14.98;2.53;;;;;;;7.34;43.24;100536.94;5027059;28;19916;-70
2024/03/23 06:53:13;;;;;;;16.52;1.52;;;;;;;6.56;45.64;100534.09;5028150;28;20093;-71
2024/03/23 06:55:39;;;;;;;5.90;1.10;;;;;;;6.27;46.48;100538.31;5027537;28;20114;-72
2024/03/23 06:58:05;;;;;;;9.45;1.05;;;;;;;5.44;48.43;100545.63;5023288;28;20037;-74
2024/03/23 07:00:32;;;;;;;6.68;0.80;;;;;;;5.20;49.60;100547.91;5031865;28;20107;-73
2024/03/23 07:02:58;;;;;;;15.95;1.48;;;;;;;5.44;49.32;100545.63;5031431;28;20045;-73
2024/03/23 07:05:23;;;;;;;15.80;1.02;;;;;;;6.37;48.70;100537.19;5030242;28;20055;-73
2024/03/23 07:07:49;;;;;;;5.60;1.35;;;;;;;6.53;46.50;100541.94;5021082;28;20064;-74
2024/03/23 07:10:15;;;;;;;11.77;1.25;;;;;;;7.29;45.38;100534.47;5019035;28;20037;-71
2024/03/23 07:12:40;;;;;;;10.40;2.25;;;;;;;6.04;47.63;100532.00;5031183;28;20033;-73
2024/03/23 07:15:08;;;;;;;10.18;0.88;;;;;;;5.14;49.17;100537.66;5024145;28;20058;-73
2024/03/23 07:17:34;;;;;;;13.95;1.48;;;;;;;4.73;51.20;100535.97;5028827;28;20044;-71
2024/03/23 07:20:03;;;;;;;8.57;1.67;;;;;;;6.09;48.70;100535.31;5024356;28;20283;-72
2024/03/23 07:22:32;;;;;;;13.25;1.35;;;;;;;4.93;49.78;100530.38;5035109;28;20552;-75
2024/03/23 07:25:02;;;;;;;10.95;1.08;;;;;;;5.99;48.50;100522.63;5027962;28;20033;-73
2024/03/23 07:27:27;;;;;;;16.17;1.55;;;;;;;5.98;48.44;100510.56;5030646;28;20076;-75
2024/03/23 07:29:53;;;;;;;6.28;0.82;;;;;;;6.77;45.86;100507.47;5024431;28;20498;-75
2024/03/23 07:32:18;;;;;;;2.22;0.43;;;;;;;8.53;42.10;100497.28;5017873;28;20036;-76
2024/03/23 07:34:44;;;;;;;7.57;1.65;;;;;;;10.59;37.67;100497.47;5038532;28;20028;-74
2024/03/23 07:37:10;;;;;;;5.18;0.65;;;;;;;10.22;37.14;100491.28;5023701;28;22129;-74
2024/03/23 07:39:36;;;;;;;3.20;0.70;;;;;;;11.65;35.70;100494.16;5033083;28;20032;-74
2024/03/23 07:42:05;;;;;;;5.43;0.68;;;;;;;11.48;36.04;100494.97;5026347;28;20079;-75
2024/03/23 07:44:31;;;;;;;6.55;0.82;;;;;;;11.22;35.16;100491.91;5025850;28;20060;-74
2024/03/23 07:47:01;;;;;;;11.13;0.65;;;;;;;12.24;33.25;100484.97;5025195;28;20135;-74
2024/03/23 07:49:28;;;;;;;4.75;0.50;;;;;;;12.79;32.84;100489.03;5034675;28;20068;-75
2024/03/23 07:51:54;;;;;;;5.75;0.57;;;;;;;13.01;32.00;100475.56;5026702;28;20104;-76
2024/03/23 07:54:20;;;;;;;7.82;0.73;;;;;;;12.67;31.86;100477.44;5037954;28;20330;-76
2024/03/23 07:56:46;;;;;;;6.32;0.50;;;;;;;13.33;32.21;100483.38;5035567;28;20453;-75
2024/03/23 07:59:12;;;;;;;5.75;0.77;;;;;;;12.97;32.37;100478.47;4999050;28;21492;-75
2024/03/23 08:01:38;;;;;;;9.07;1.00;;;;;;;12.84;31.40;100468.63;5034780;28;20037;-75
2024/03/23 08:04:03;;;;;;;4.80;0.45;;;;;;;12.75;32.60;100473.56;5021564;28;20044;-74
2024/03/23 08:06:29;;;;;;;5.88;0.88;;;;;;;11.76;33.25;100468.25;5036519;28;20052;-76
2024/03/23 08:09:00;;;;;;;5.07;0.63;;;;;;;13.77;31.15;100468.59;5024438;28;20084;-76
2024/03/23 08:11:32;;;;;;;8.98;0.70;;;;;;;12.68;32.04;100471.25;5040734;28;20039;-75
2024/03/23 08:13:58;;;;;;;12.32;0.82;;;;;;;13.32;32.20;100471.19;5021510;28;20178;-75
2024/03/23 08:16:24;;;;;;;6.38;0.35;;;;;;;13.19;32.61;100472.84;5025785;28;20516;-75
2024/03/23 08:18:53;;;;;;;10.45;0.80;;;;;;;10.58;36.43;100472.22;5031136;28;20079;-72
2024/03/23 08:21:18;;;;;;;9.18;0.70;;;;;;;11.27;36.33;100475.13;5025814;28;20029;-73
2024/03/23 08:23:44;;;;;;;7.80;0.52;;;;;;;13.32;32.68;100463.31;5016552;28;20044;-75
2024/03/23 08:26:12;;;;;;;10.18;0.80;;;;;;;10.53;35.82;100470.75;5032324;28;20037;-74
2024/03/23 08:28:37;;;;;;;7.88;1.38;;;;;;;9.55;37.76;100468.06;5022018;28;20033;-74
2024/03/23 08:31:11;;;;;;;5.43;0.80;;;;;;;10.34;38.22;100461.13;5029370;28;20142;-73
2024/03/23 08:33:38;;;;;;;6.72;0.73;;;;;;;10.65;37.31;100459.72;5036919;28;20041;-73
2024/03/23 08:36:06;;;;;;;12.27;0.93;;;;;;;11.01;35.46;100462.38;5030655;28;20144;-74
2024/03/23 08:38:32;;;;;;;6.63;0.98;;;;;;;11.59;35.67;100460.41;5035173;28;20111;-74
2024/03/23 08:41:05;;;;;;;11.07;1.23;;;;;;;11.91;34.39;100464.06;5031189;28;20037;-74
2024/03/23 08:43:40;;;;;;;10.30;1.48;;;;;;;12.75;32.84;100448.19;5035260;28;20071;-74
2024/03/23 08:46:14;;;;;;;6.85;0.70;;;;;;;11.46;34.43;100458.44;5028655;28;20108;-73
2024/03/23 08:48:43;;;;;;;5.32;0.68;;;;;;;9.67;36.46;100453.66;5031568;28;20069;-74
2024/03/23 08:51:10;;;;;;;4.82;0.38;;;;;;;9.71;37.53;100448.22;5027862;28;20390;-74
2024/03/23 08:53:37;;;;;;;6.85;0.45;;;;;;;9.73;37.05;100456.00;5034568;28;20052;-75
2024/03/23 08:56:04;;;;;;;5.05;0.63;;;;;;;9.58;36.89;100457.50;5022455;28;20036;-75
2024/03/23 08:58:31;;;;;;;11.40;0.85;;;;;;;8.96;38.53;100459.16;5017187;28;20037;-76
2024/03/23 09:01:02;;;;;;;10.80;2.15;;;;;;;7.39;40.99;100463.97;5030858;28;20036;-74
2024/03/23 09:03:28;;;;;;;;;;;;;;;6.96;44.53;100465.38;5033257;28;20060;-74
2024/03/23 09:05:55;;;;;;;8.02;1.45;;;;;;;5.89;47.35;100472.75;5032532;28;19928;-74
2024/03/23 09:08:21;;;;;;;5.20;0.30;;;;;;;5.31;47.88;100474.25;5025903;28;20918;-73
2024/03/23 09:10:47;;;;;;;3.45;0.70;;;;;;;3.89;52.37;100482.38;5030787;28;20593;-73
2024/03/23 09:13:13;;;;;;;6.00;0.45;;;;;;;4.58;50.87;100478.44;5028981;28;20442;-75
2024/03/23 09:15:49;;;;;;;5.70;0.90;;;;;;;5.43;50.86;100471.34;5029483;28;20101;-73
2024/03/23 09:18:15;;;;;;;3.90;0.80;;;;;;;5.96;47.88;100465.66;5025109;28;20135;-74
2024/03/23 09:20:41;;;;;;;8.85;0.47;;;;;;;6.75;48.23;100472.91;5027693;28;20039;-74
2024/03/23 09:23:06;;;;;;;8.80;1.25;;;;;;;7.31;45.31;100466.81;5023478;28;20190;-74
2024/03/23 09:25:36;;;;;;;10.00;1.25;;;;;;;7.40;46.66;100463.06;5031462;28;20123;-74
2024/03/23 09:28:02;;;;;;;11.82;0.80;;;;;;;8.30;43.71;100453.88;5027156;28;20092;-75
2024/03/23 09:30:27;;;;;;;8.02;0.82;;;;;;;8.46;42.57;100459.34;5036844;28;20060;-74
2024/03/23 09:32:52;;;;;;;10.15;1.60;;;;;;;7.55;43.07;100453.94;5033026;28;20191;-74
2024/03/23 09:35:18;;;;;;;6.70;0.80;;;;;;;7.78;43.02;100446.19;5024861;28;20105;-73
2024/03/23 09:37:45;;;;;;;12.45;1.40;;;;;;;8.47;42.46;100451.50;5028041;28;20059;-74
2024/03/23 09:40:11;;;;;;;9.13;0.68;;;;;;;7.04;42.13;100447.75;5024884;28;20024;-75
2024/03/23 09:42:37;;;;;;;3.92;0.68;;;;;;;7.15;43.17;100450.88;5027934;28;20048;-74
2024/03/23 09:45:06;;;;;;;8.70;1.30;;;;;;;6.34;44.93;100446.44;5011241;28;20032;-75
2024/03/23 09:47:34;;;;;;;3.53;0.43;;;;;;;6.24;45.63;100444.97;5027858;28;20037;-73
2024/03/23 09:50:00;;;;;;;13.00;0.70;;;;;;;7.09;43.73;100451.09;5032152;28;20036;-73
2024/03/23 09:52:26;;;;;;;8.30;0.93;;;;;;;6.57;45.86;100463.91;5038212;28;20036;-74
2024/03/23 09:54:52;;;;;;;5.60;0.90;;;;;;;5.63;48.51;100502.78;5013519;28;20450;-73
2024/03/23 09:57:17;;;;;;;4.93;0.57;;;;;;;3.94;49.13;100471.97;5023351;28;20068;-73
2024/03/23 09:59:43;;;;;;;6.43;0.70;;;;;;;3.03;51.96;100481.22;5033174;28;20134;-75
2024/03/23 10:02:10;;;;;;;2.67;0.80;;;;;;;2.88;53.09;100471.13;5024404;28;20029;-73
2024/03/23 10:04:40;;;;;;;3.92;0.50;;;;;;;3.32;52.27;100473.06;5030194;28;20062;-72
2024/03/23 10:07:19;;;;;;;2.83;0.65;;;;;;;3.53;52.86;100464.06;5023757;28;20051;-74
2024/03/23 10:09:45;;;;;;;2.08;0.40;;;;;;;4.04;52.35;100465.75;5023633;28;20036;-74
2024/03/23 10:12:13;;;;;;;5.80;0.40;;;;;;;4.00;52.09;100456.34;5019644;28;20028;-74
2024/03/23 10:14:42;;;;;;;3.40;0.30;;;;;;;3.56;52.91;100466.63;5030303;28;20037;-75
2024/03/23 10:17:19;;;;;;;4.80;0.65;;;;;;;4.04;53.10;100457.97;5030310;28;20033;-75
2024/03/23 10:19:49;;;;;;;3.05;0.50;;;;;;;5.00;52.83;100456.84;5038058;28;20028;-73
2024/03/23 10:22:21;;;;;;;2.33;0.50;;;;;;;6.13;50.34;100452.19;5023501;28;20033;-72
2024/03/23 10:24:48;;;;;;;4.93;0.40;;;;;;;6.71;50.72;100458.34;5032229;28;20040;-73
2024/03/23 10:27:18;;;;;;;7.22;0.50;;;;;;;6.60;48.84;100453.47;5023515;28;20544;-73
2024/03/23 10:29:45;;;;;;;6.03;1.05;;;;;;;6.61;47.01;100451.72;5032688;28;20103;-73
2024/03/23 10:32:12;;;;;;;6.57;0.90;;;;;;;7.56;47.25;100443.50;5020513;28;20105;-74
2024/03/23 10:34:38;;;;;;;8.80;0.60;;;;;;;7.39;45.53;100454.41;5030784;28;20697;-73
2024/03/23 10:37:05;;;;;;;7.80;0.93;;;;;;;6.32;47.46;100448.22;5027039;28;20887;-73
2024/03/23 10:39:43;;;;;;;5.30;0.50;;;;;;;6.14;47.99;100451.31;5029903;28;20094;-74
2024/03/23 10:42:12;;;;;;;7.53;2.05;;;;;;;5.33;48.71;100449.16;5017485;28;20037;-72
2024/03/23 10:44:38;;;;;;;7.07;0.77;;;;;;;5.06;50.27;100441.16;5030977;28;20048;-72
2024/03/23 10:47:05;;;;;;;4.63;0.93;;;;;;;4.41;50.73;100442.56;5029661;28;20040;-72
2024/03/23 10:49:35;;;;;;;12.07;1.75;;;;;;;5.40;49.07;100441.16;5028266;28;20033;-71
2024/03/23 10:52:03;;;;;;;4.95;1.10;;;;;;;4.84;50.51;100440.78;5027705;28;20029;-74
2024/03/23 10:54:30;;;;;;;11.98;1.80;;;;;;;4.82;49.96;100455.50;5006207;28;20121;-72
2024/03/23 10:57:04;;;;;;;4.90;0.38;;;;;;;4.56;50.92;100456.06;5029192;28;20040;-73
2024/03/23 10:59:31;;;;;;;7.07;1.85;;;;;;;4.98;48.64;100463.78;5023327;28;20044;-72
2024/03/23 11:01:57;;;;;;;12.43;1.05;;;;;;;5.47;47.48;100447.03;5029745;28;20407;-73
2024/03/23 11:04:38;;;;;;;6.53;0.57;;;;;;;6.95;45.56;100448.06;5023287;28;20029;-72
2024/03/23 11:07:23;;;;;;;7.47;0.63;;;;;;;8.31;42.50;100435.56;5026868;28;20036;-72
2024/03/23 11:09:50;;;;;;;6.45;0.30;;;;;;;8.41;41.47;100441.31;5023780;28;20029;-73
2024/03/23 11:12:27;;;;;;;7.28;0.90;;;;;;;8.79;41.90;100430.34;5030246;28;20033;-73
2024/03/23 11:15:03;;;;;;;3.03;0.65;;;;;;;8.28;41.91;100429.66;5035619;28;20508;-72
2024/03/23 11:17:29;;;;;;;5.38;0.50;;;;;;;8.30;41.99;100420.03;5023703;28;20048;-72
2024/03/23 11:19:58;;;;;;;11.30;1.40;;;;;;;7.53;41.79;100415.81;5036411;28;20025;-72
2024/03/23 11:22:41;;;;;;;9.70;0.73;;;;;;;7.73;40.96;100428.16;5023334;28;20048;-75
2024/03/23 11:25:23;;;;;;;8.38;0.82;;;;;;;7.77;41.92;100428.03;5033177;28;20036;-73